Wetterdaten: Woche 16.04.12 - 22.04.12 (KW16)
Datum Zeit Temp. A. Feuchte A. Luftdruck Regen Wind Richtung Taupunkt Windchill Windben
16.04.2012 00:00 8,8 C 82 % 1002,0 hPa 0,0 l/m 9,1 km/h N 5,9 C 6,9 C 19,7 km/h
16.04.2012 01:00 8,8 C 82 % 1002,5 hPa 0,0 l/m 9,7 km/h N 5,9 C 6,5 C 22,1 km/h
16.04.2012 02:00 8,7 C 82 % 1002,5 hPa 0,0 l/m 8,1 km/h N 5,8 C 7,4 C 18,9 km/h
16.04.2012 03:00 8,6 C 82 % 1002,7 hPa 0,0 l/m 8,2 km/h N 5,7 C 7,3 C 19,3 km/h
16.04.2012 04:00 8,7 C 82 % 1003,0 hPa 0,0 l/m 9,8 km/h N 5,8 C 6,3 C 22,9 km/h
16.04.2012 05:00 8,6 C 81 % 1003,2 hPa 0,0 l/m 10,0 km/h N 5,6 C 6,1 C 22,5 km/h
16.04.2012 06:00 8,5 C 80 % 1003,5 hPa 0,0 l/m 10,7 km/h N 5,2 C 5,5 C 24,9 km/h
16.04.2012 07:00 8,5 C 78 % 1004,0 hPa 0,0 l/m 10,8 km/h N 5,0 C 5,5 C 25,7 km/h
16.04.2012 08:00 8,5 C 77 % 1004,5 hPa 0,0 l/m 12,8 km/h N 4,7 C 4,4 C 29,0 km/h
16.04.2012 09:00 8,6 C 78 % 1005,3 hPa 0,0 l/m 13,3 km/h N 5,0 C 4,3 C 27,8 km/h
16.04.2012 10:00 8,2 C 80 % 1006,1 hPa 0,0 l/m 12,0 km/h N 4,9 C 4,4 C 26,6 km/h
16.04.2012 11:00 8,4 C 79 % 1006,6 hPa 0,0 l/m 13,3 km/h N 5,0 C 4,0 C 32,2 km/h
16.04.2012 12:00 8,2 C 79 % 1007,1 hPa 0,0 l/m 17,1 km/h N 4,8 C 2,1 C 36,2 km/h
16.04.2012 13:00 7,8 C 80 % 1007,6 hPa 0,5 l/m 15,8 km/h N 4,6 C 2,2 C 33,8 km/h
16.04.2012 14:00 7,2 C 82 % 1008,5 hPa 0,0 l/m 13,0 km/h N 4,3 C 2,8 C 28,6 km/h
16.04.2012 15:00 7,1 C 82 % 1009,0 hPa 0,3 l/m 14,8 km/h N 4,1 C 1,7 C 31,4 km/h
16.04.2012 16:00 6,2 C 82 % 1009,8 hPa 0,3 l/m 14,2 km/h N 3,4 C 1,0 C 29,4 km/h
16.04.2012 17:00 5,7 C 83 % 1010,7 hPa 0,5 l/m 13,0 km/h N 3,1 C 1,1 C 27,8 km/h
16.04.2012 18:00 5,2 C 83 % 1011,4 hPa 1,0 l/m 13,2 km/h N 2,6 C 0,3 C 31,0 km/h
16.04.2012 19:00 4,8 C 83 % 1012,0 hPa 0,8 l/m 13,1 km/h N 2,1 C -0,1 C 29,4 km/h
16.04.2012 20:00 4,6 C 83 % 1013,0 hPa 0,8 l/m 10,3 km/h N 1,9 C 1,4 C 25,3 km/h
16.04.2012 21:00 4,4 C 83 % 1013,9 hPa 1,0 l/m 10,2 km/h N 1,7 C 1,2 C 22,9 km/h
16.04.2012 22:00 4,3 C 82 % 1014,3 hPa 0,3 l/m 10,6 km/h N 1,6 C 1,0 C 23,3 km/h
16.04.2012 23:00 4,4 C 83 % 1014,7 hPa 0,3 l/m 10,7 km/h N 1,8 C 1,0 C 24,5 km/h
17.04.2012 00:00 4,1 C 83 % 1015,1 hPa 0,3 l/m 10,7 km/h N 1,5 C 0,6 C 23,3 km/h
17.04.2012 01:00 4,2 C 83 % 1015,1 hPa 0,0 l/m 8,1 km/h N 1,6 C 2,7 C 22,9 km/h
17.04.2012 02:00 4,4 C 83 % 1014,5 hPa 0,0 l/m 11,9 km/h N 1,8 C 0,2 C 25,4 km/h
17.04.2012 03:00 4,6 C 80 % 1014,4 hPa 0,0 l/m 12,1 km/h N 1,5 C 0,2 C 24,5 km/h
17.04.2012 04:00 4,6 C 78 % 1014,4 hPa 0,0 l/m 11,1 km/h N 1,2 C 0,9 C 26,1 km/h
17.04.2012 05:00 4,5 C 79 % 1014,5 hPa 0,0 l/m 8,8 km/h N 1,2 C 2,6 C 20,1 km/h
17.04.2012 06:00 4,4 C 79 % 1014,7 hPa 0,0 l/m 6,3 km/h N 1,1 C 4,1 C 16,9 km/h
17.04.2012 07:00 4,6 C 78 % 1014,6 hPa 0,0 l/m 7,8 km/h N 1,1 C 3,3 C 18,9 km/h
17.04.2012 08:00 5,2 C 76 % 1014,4 hPa 0,0 l/m 10,1 km/h N 1,2 C 2,2 C 22,5 km/h
17.04.2012 09:00 6,3 C 69 % 1014,0 hPa 0,0 l/m 10,6 km/h N 1,0 C 3,1 C 23,3 km/h
17.04.2012 10:00 6,9 C 64 % 1014,1 hPa 0,0 l/m 10,8 km/h N 0,6 C 3,7 C 22,9 km/h
17.04.2012 11:00 8,3 C 58 % 1013,6 hPa 0,0 l/m 9,9 km/h N 0,4 C 5,7 C 24,5 km/h
17.04.2012 12:00 8,5 C 55 % 1013,0 hPa 0,0 l/m 10,5 km/h N -0,1 C 5,6 C 25,8 km/h
17.04.2012 13:00 8,6 C 53 % 1012,4 hPa 0,0 l/m 10,0 km/h N -0,3 C 6,2 C 22,9 km/h
17.04.2012 14:00 9,8 C 48 % 1011,6 hPa 0,0 l/m 9,9 km/h N -0,6 C 7,4 C 21,7 km/h
17.04.2012 15:00 9,8 C 48 % 1010,8 hPa 0,0 l/m 10,8 km/h N -0,8 C 6,9 C 22,9 km/h
17.04.2012 16:00 9,6 C 47 % 1010,2 hPa 0,0 l/m 8,9 km/h N -1,2 C 7,9 C 20,1 km/h
17.04.2012 17:00 8,9 C 46 % 1009,9 hPa 0,0 l/m 8,3 km/h N -2,1 C 7,5 C 19,7 km/h
17.04.2012 18:00 9,1 C 48 % 1009,5 hPa 0,0 l/m 5,9 km/h N -1,4 C 9,0 C 16,1 km/h
17.04.2012 19:00 8,3 C 50 % 1009,0 hPa 0,0 l/m 4,1 km/h N -1,6 C 8,3 C 9,7 km/h
17.04.2012 20:00 6,4 C 59 % 1009,1 hPa 0,0 l/m 0,9 km/h N -1,0 C 6,4 C 4,4 km/h
17.04.2012 21:00 4,9 C 64 % 1008,9 hPa 0,0 l/m 0,0 km/h N -1,4 C 4,9 C 0,8 km/h
17.04.2012 22:00 3,5 C 70 % 1008,7 hPa 0,0 l/m 0,3 km/h N -1,4 C 3,5 C 3,2 km/h
17.04.2012 23:00 3,1 C 73 % 1008,3 hPa 0,0 l/m 0,2 km/h N -1,3 C 3,1 C 2,8 km/h
18.04.2012 00:00 2,2 C 74 % 1008,1 hPa 0,0 l/m 0,6 km/h N -1,9 C 2,2 C 4,0 km/h
18.04.2012 01:00 1,1 C 78 % 1007,2 hPa 0,0 l/m 0,5 km/h N -2,2 C 1,1 C 3,6 km/h
18.04.2012 02:00 0,6 C 79 % 1006,4 hPa 0,0 l/m 0,2 km/h N -2,6 C 0,6 C 2,4 km/h
18.04.2012 03:00 0,3 C 80 % 1005,7 hPa 0,0 l/m 0,0 km/h N -2,7 C 0,3 C 1,6 km/h
18.04.2012 04:00 -0,2 C 80 % 1005,1 hPa 0,0 l/m 0,6 km/h N -3,2 C -0,2 C 4,4 km/h
18.04.2012 05:00 -0,9 C 82 % 1004,5 hPa 0,0 l/m 0,2 km/h N -3,6 C -0,9 C 3,2 km/h
18.04.2012 06:00 -1,3 C 83 % 1004,3 hPa 0,0 l/m 0,0 km/h N -3,9 C -1,3 C 2,0 km/h
18.04.2012 07:00 -0,3 C 83 % 1004,3 hPa 0,0 l/m 0,0 km/h N -2,8 C -0,3 C 0,8 km/h
18.04.2012 08:00 3,8 C 76 % 1004,0 hPa 0,0 l/m 0,4 km/h N -0,0 C 3,8 C 2,8 km/h
18.04.2012 09:00 6,8 C 63 % 1003,6 hPa 0,0 l/m 0,7 km/h N 0,3 C 6,8 C 4,8 km/h
18.04.2012 10:00 9,5 C 56 % 1002,8 hPa 0,0 l/m 2,0 km/h N 1,0 C 9,5 C 8,9 km/h
18.04.2012 11:00 10,7 C 52 % 1002,3 hPa 0,0 l/m 2,8 km/h N 1,3 C 10,7 C 8,0 km/h
18.04.2012 12:00 11,6 C 51 % 1001,6 hPa 0,0 l/m 2,3 km/h N 1,9 C 11,6 C 7,6 km/h
18.04.2012 13:00 12,9 C 46 % 1000,5 hPa 0,0 l/m 2,2 km/h N 1,7 C 12,9 C 8,9 km/h
18.04.2012 14:00 13,8 C 45 % 999,8 hPa 0,0 l/m 3,1 km/h N 2,2 C 13,8 C 9,7 km/h
18.04.2012 15:00 14,4 C 43 % 999,0 hPa 0,0 l/m 2,9 km/h N 1,8 C 14,4 C 11,7 km/h
18.04.2012 16:00 14,7 C 44 % 998,5 hPa 0,0 l/m 2,5 km/h N 2,4 C 14,7 C 8,9 km/h
18.04.2012 17:00 14,5 C 44 % 998,1 hPa 0,0 l/m 4,0 km/h N 2,5 C 14,5 C 16,1 km/h
18.04.2012 18:00 13,4 C 45 % 997,8 hPa 0,0 l/m 7,4 km/h N 1,7 C 12,8 C 17,3 km/h
18.04.2012 19:00 12,3 C 50 % 997,4 hPa 0,0 l/m 4,1 km/h N 2,1 C 12,3 C 10,5 km/h
18.04.2012 20:00 11,2 C 53 % 997,4 hPa 0,0 l/m 0,7 km/h N 2,0 C 11,2 C 4,8 km/h
18.04.2012 21:00 10,3 C 56 % 997,5 hPa 0,0 l/m 0,7 km/h N 1,9 C 10,3 C 5,6 km/h
18.04.2012 22:00 9,9 C 58 % 997,3 hPa 0,0 l/m 2,4 km/h N 2,0 C 9,9 C 7,6 km/h
18.04.2012 23:00 9,5 C 61 % 996,8 hPa 0,0 l/m 0,8 km/h N 2,3 C 9,5 C 4,0 km/h
19.04.2012 00:00 8,5 C 67 % 996,5 hPa 0,0 l/m 0,0 km/h N 2,7 C 8,5 C 0,0 km/h
19.04.2012 01:00 7,0 C 72 % 996,0 hPa 0,0 l/m 0,0 km/h N 2,3 C 7,0 C 0,0 km/h
19.04.2012 02:00 5,1 C 77 % 995,6 hPa 0,0 l/m 0,0 km/h N 1,3 C 5,1 C 0,0 km/h
19.04.2012 03:00 4,8 C 81 % 995,4 hPa 0,0 l/m 0,1 km/h N 1,8 C 4,8 C 2,8 km/h
19.04.2012 04:00 4,2 C 81 % 995,3 hPa 0,0 l/m 0,0 km/h N 1,3 C 4,2 C 0,4 km/h
19.04.2012 05:00 2,9 C 82 % 995,2 hPa 0,0 l/m 0,0 km/h N 0,2 C 2,9 C 0,8 km/h
19.04.2012 06:00 2,8 C 83 % 995,3 hPa 0,0 l/m 0,0 km/h N 0,2 C 2,8 C 0,0 km/h
19.04.2012 07:00 4,0 C 82 % 995,4 hPa 0,0 l/m 0,0 km/h N 1,2 C 4,0 C 0,8 km/h
19.04.2012 08:00 7,8 C 77 % 995,1 hPa 0,0 l/m 2,0 km/h N 4,1 C 7,8 C 6,4 km/h
19.04.2012 09:00 11,5 C 64 % 994,9 hPa 0,0 l/m 3,3 km/h N 4,8 C 11,5 C 9,2 km/h
19.04.2012 10:00 14,1 C 55 % 994,4 hPa 0,0 l/m 4,3 km/h N 5,3 C 14,0 C 12,1 km/h
19.04.2012 11:00 15,8 C 52 % 993,9 hPa 0,0 l/m 5,9 km/h N 5,8 C 15,5 C 16,9 km/h
19.04.2012 12:00 16,2 C 53 % 993,5 hPa 0,0 l/m 4,5 km/h N 6,7 C 16,0 C 15,7 km/h
19.04.2012 13:00 16,3 C 51 % 993,2 hPa 0,0 l/m 3,3 km/h N 6,0 C 16,3 C 14,9 km/h
19.04.2012 14:00 16,7 C 47 % 992,8 hPa 0,0 l/m 3,2 km/h N 5,4 C 16,7 C 13,3 km/h
19.04.2012 15:00 15,9 C 51 % 992,5 hPa 1,3 l/m 4,1 km/h N 5,7 C 15,9 C 11,7 km/h
19.04.2012 16:00 15,9 C 52 % 992,4 hPa 0,0 l/m 6,0 km/h N 5,9 C 15,4 C 19,7 km/h
19.04.2012 17:00 16,8 C 45 % 992,4 hPa 0,0 l/m 7,0 km/h N 4,8 C 16,5 C 20,1 km/h
19.04.2012 18:00 15,3 C 47 % 992,9 hPa 0,0 l/m 4,6 km/h N 3,9 C 15,1 C 16,1 km/h
19.04.2012 19:00 14,6 C 51 % 993,0 hPa 0,0 l/m 1,1 km/h N 4,6 C 14,6 C 6,0 km/h
19.04.2012 20:00 13,1 C 57 % 993,4 hPa 0,0 l/m 0,6 km/h N 4,8 C 13,1 C 4,4 km/h
19.04.2012 21:00 13,7 C 53 % 993,4 hPa 0,0 l/m 2,8 km/h N 4,2 C 13,7 C 12,1 km/h
19.04.2012 22:00 10,9 C 64 % 993,7 hPa 0,0 l/m 0,1 km/h N 4,3 C 10,9 C 2,0 km/h
19.04.2012 23:00 8,3 C 74 % 994,0 hPa 0,0 l/m 0,1 km/h N 3,8 C 8,3 C 2,0 km/h
20.04.2012 00:00 6,6 C 80 % 994,0 hPa 0,0 l/m 0,1 km/h N 3,3 C 6,6 C 2,8 km/h
20.04.2012 01:00 5,9 C 82 % 994,1 hPa 0,0 l/m 0,0 km/h N 3,0 C 5,9 C 0,4 km/h
20.04.2012 02:00 5,0 C 83 % 994,0 hPa 0,0 l/m 0,1 km/h N 2,3 C 5,0 C 2,0 km/h
20.04.2012 03:00 4,5 C 83 % 994,1 hPa 0,0 l/m 0,0 km/h N 1,9 C 4,5 C 0,8 km/h
20.04.2012 04:00 3,9 C 82 % 994,1 hPa 0,0 l/m 0,0 km/h N 1,1 C 3,9 C 1,2 km/h
20.04.2012 05:00 3,3 C 82 % 994,0 hPa 0,0 l/m 0,1 km/h N 0,6 C 3,3 C 1,6 km/h
20.04.2012 06:00 2,8 C 82 % 994,5 hPa 0,0 l/m 0,0 km/h N 0,0 C 2,8 C 0,0 km/h
20.04.2012 07:00 4,0 C 80 % 995,2 hPa 0,0 l/m 0,0 km/h N 0,8 C 4,0 C 0,0 km/h
20.04.2012 08:00 6,8 C 79 % 995,7 hPa 0,0 l/m 1,3 km/h N 3,5 C 6,8 C 4,4 km/h
20.04.2012 09:00 10,4 C 78 % 995,8 hPa 0,0 l/m 5,5 km/h N 6,7 C 10,2 C 14,5 km/h
20.04.2012 10:00 13,1 C 65 % 996,0 hPa 0,0 l/m 7,3 km/h N 6,7 C 12,4 C 19,3 km/h
20.04.2012 11:00 14,4 C 60 % 996,4 hPa 0,0 l/m 5,3 km/h N 6,6 C 14,3 C 10,9 km/h
20.04.2012 12:00 15,1 C 57 % 996,5 hPa 0,0 l/m 4,2 km/h N 6,7 C 15,1 C 11,3 km/h
20.04.2012 13:00 16,4 C 55 % 996,4 hPa 0,0 l/m 3,9 km/h N 7,2 C 16,4 C 8,9 km/h
20.04.2012 14:00 16,4 C 53 % 996,3 hPa 0,0 l/m 2,7 km/h N 6,7 C 16,4 C 8,9 km/h
20.04.2012 15:00 16,9 C 53 % 996,0 hPa 0,0 l/m 3,0 km/h N 7,3 C 16,9 C 9,7 km/h
20.04.2012 16:00 16,7 C 53 % 996,1 hPa 0,0 l/m 2,4 km/h N 7,0 C 16,7 C 8,9 km/h
20.04.2012 17:00 15,7 C 56 % 996,7 hPa 0,3 l/m 4,1 km/h N 6,9 C 15,6 C 13,3 km/h
20.04.2012 18:00 11,1 C 77 % 997,7 hPa 2,9 l/m 7,1 km/h N 7,1 C 10,0 C 18,9 km/h
20.04.2012 19:00 10,2 C 81 % 998,7 hPa 0,3 l/m 2,2 km/h N 7,1 C 10,2 C 9,3 km/h
20.04.2012 20:00 9,8 C 82 % 999,1 hPa 0,0 l/m 1,6 km/h N 6,9 C 9,8 C 6,0 km/h
20.04.2012 21:00 9,4 C 82 % 999,8 hPa 0,0 l/m 1,1 km/h N 6,5 C 9,4 C 6,8 km/h
20.04.2012 22:00 9,4 C 82 % 1000,3 hPa 0,0 l/m 2,5 km/h N 6,4 C 9,4 C 9,6 km/h
20.04.2012 23:00 9,1 C 82 % 1000,3 hPa 0,0 l/m 3,1 km/h N 6,2 C 9,1 C 14,5 km/h
21.04.2012 00:00 9,3 C 79 % 1000,8 hPa 0,0 l/m 3,6 km/h N 5,8 C 9,3 C 14,9 km/h
21.04.2012 01:00 9,4 C 77 % 1001,1 hPa 0,0 l/m 4,3 km/h N 5,6 C 9,4 C 15,3 km/h
21.04.2012 02:00 9,4 C 78 % 1001,3 hPa 0,0 l/m 3,8 km/h N 5,6 C 9,4 C 12,9 km/h
21.04.2012 03:00 9,1 C 78 % 1001,8 hPa 0,0 l/m 0,9 km/h N 5,5 C 9,1 C 5,2 km/h
21.04.2012 04:00 9,0 C 79 % 1002,0 hPa 0,0 l/m 5,0 km/h N 5,5 C 8,7 C 16,5 km/h
21.04.2012 05:00 8,9 C 77 % 1002,3 hPa 0,0 l/m 7,9 km/h N 5,1 C 7,8 C 23,7 km/h
21.04.2012 06:00 8,9 C 75 % 1002,8 hPa 0,0 l/m 8,9 km/h N 4,6 C 7,1 C 25,8 km/h
21.04.2012 07:00 9,5 C 71 % 1003,4 hPa 0,0 l/m 8,1 km/h N 4,5 C 8,3 C 24,1 km/h
21.04.2012 08:00 9,7 C 70 % 1004,2 hPa 0,0 l/m 9,0 km/h N 4,5 C 7,9 C 24,9 km/h
21.04.2012 09:00 10,5 C 67 % 1004,9 hPa 0,0 l/m 11,3 km/h N 4,6 C 7,5 C 29,8 km/h
21.04.2012 10:00 11,4 C 62 % 1005,4 hPa 0,0 l/m 12,6 km/h N 4,5 C 7,9 C 27,4 km/h
21.04.2012 11:00 12,5 C 58 % 1005,8 hPa 0,0 l/m 10,8 km/h N 4,5 C 9,9 C 24,5 km/h
21.04.2012 12:00 14,7 C 55 % 1005,6 hPa 0,0 l/m 7,4 km/h N 5,7 C 14,0 C 19,3 km/h
21.04.2012 13:00 15,5 C 51 % 1005,5 hPa 0,0 l/m 6,5 km/h N 5,2 C 15,2 C 16,5 km/h
21.04.2012 14:00 15,9 C 48 % 1005,4 hPa 0,0 l/m 5,1 km/h N 4,9 C 15,9 C 16,9 km/h
21.04.2012 15:00 16,8 C 44 % 1005,0 hPa 0,0 l/m 3,4 km/h N 4,6 C 16,8 C 10,9 km/h
21.04.2012 16:00 16,5 C 45 % 1005,0 hPa 0,0 l/m 4,3 km/h N 4,5 C 16,5 C 14,5 km/h
21.04.2012 17:00 16,3 C 47 % 1004,8 hPa 0,0 l/m 3,3 km/h N 4,9 C 16,3 C 9,7 km/h
21.04.2012 18:00 15,9 C 49 % 1004,5 hPa 0,0 l/m 4,4 km/h N 5,0 C 15,9 C 12,1 km/h
21.04.2012 19:00 15,3 C 52 % 1004,9 hPa 0,0 l/m 1,8 km/h N 5,5 C 15,3 C 6,8 km/h
21.04.2012 20:00 13,2 C 60 % 1005,3 hPa 0,0 l/m 0,0 km/h N 5,5 C 13,2 C 0,4 km/h
21.04.2012 21:00 9,6 C 72 % 1005,6 hPa 0,0 l/m 0,0 km/h N 4,7 C 9,6 C 0,0 km/h
21.04.2012 22:00 7,8 C 78 % 1005,4 hPa 0,0 l/m 0,0 km/h N 4,2 C 7,8 C 0,0 km/h
21.04.2012 23:00 6,6 C 82 % 1005,0 hPa 0,0 l/m 0,0 km/h N 3,7 C 6,6 C 0,0 km/h
22.04.2012 00:00 5,7 C 83 % 1004,7 hPa 0,0 l/m 0,0 km/h N 3,0 C 5,7 C 0,0 km/h
22.04.2012 01:00 5,1 C 83 % 1004,3 hPa 0,0 l/m 0,0 km/h N 2,4 C 5,1 C 0,0 km/h
22.04.2012 02:00 4,3 C 82 % 1004,1 hPa 0,0 l/m 0,0 km/h N 1,6 C 4,3 C 0,0 km/h
22.04.2012 03:00 3,7 C 82 % 1004,1 hPa 0,0 l/m 0,0 km/h N 0,9 C 3,7 C 0,0 km/h
22.04.2012 04:00 3,6 C 81 % 1004,4 hPa 0,0 l/m 0,1 km/h N 0,7 C 3,6 C 2,8 km/h
22.04.2012 05:00 6,4 C 79 % 1005,0 hPa 0,0 l/m 4,9 km/h N 3,1 C 5,8 C 14,4 km/h
22.04.2012 06:00 10,6 C 66 % 1004,9 hPa 0,0 l/m 14,1 km/h N 4,6 C 6,4 C 39,4 km/h
22.04.2012 07:00 11,0 C 65 % 1005,3 hPa 0,0 l/m 16,2 km/h N 4,6 C 5,9 C 40,2 km/h
22.04.2012 08:00 11,6 C 63 % 1006,3 hPa 0,0 l/m 11,0 km/h N 4,7 C 8,9 C 33,8 km/h
22.04.2012 09:00 12,9 C 58 % 1007,4 hPa 0,0 l/m 12,2 km/h N 4,8 C 9,8 C 29,8 km/h
22.04.2012 10:00 13,6 C 57 % 1008,2 hPa 0,0 l/m 12,7 km/h N 5,1 C 10,4 C 31,8 km/h
22.04.2012 11:00 12,5 C 59 % 1008,7 hPa 0,0 l/m 11,3 km/h N 4,7 C 9,7 C 26,9 km/h
22.04.2012 12:00 10,9 C 67 % 1009,3 hPa 0,0 l/m 12,0 km/h N 4,9 C 7,7 C 27,4 km/h
22.04.2012 13:00 10,0 C 75 % 1009,8 hPa 0,3 l/m 5,0 km/h N 5,7 C 9,8 C 17,7 km/h
22.04.2012 14:00 9,7 C 76 % 1009,9 hPa 0,3 l/m 5,8 km/h N 5,7 C 9,5 C 18,1 km/h
22.04.2012 15:00 9,7 C 74 % 1009,5 hPa 0,0 l/m 5,3 km/h N 5,3 C 9,7 C 16,5 km/h
22.04.2012 16:00 9,6 C 73 % 1009,5 hPa 0,0 l/m 4,8 km/h N 4,9 C 9,6 C 14,1 km/h
22.04.2012 17:00 9,2 C 77 % 1009,2 hPa 0,3 l/m 2,0 km/h N 5,3 C 9,2 C 8,4 km/h
22.04.2012 18:00 9,3 C 76 % 1009,0 hPa 0,0 l/m 0,4 km/h N 5,3 C 9,3 C 4,4 km/h
22.04.2012 19:00 9,2 C 77 % 1009,1 hPa 0,0 l/m 0,0 km/h N 5,3 C 9,2 C 1,6 km/h
22.04.2012 20:00 8,8 C 78 % 1009,3 hPa 0,0 l/m 0,1 km/h N 5,2 C 8,8 C 2,0 km/h
22.04.2012 21:00 7,8 C 79 % 1009,5 hPa 0,0 l/m 0,0 km/h N 4,4 C 7,8 C 1,6 km/h
22.04.2012 22:00 7,6 C 79 % 1009,7 hPa 0,0 l/m 3,3 km/h N 4,1 C 7,6 C 12,1 km/h
22.04.2012 23:00 9,3 C 68 % 1010,0 hPa 0,0 l/m 5,6 km/h N 3,7 C 9,3 C 16,5 km/h
Min-Datum _ 18.04.12 18.04.12 19.04.12 - 17.04.12 - 18.04.12 18.04.12 17.04.12
_ Min-Zeit 06:15 15:45 16:00 - 21:15 - 06:15 06:15 21:15
Minimum _ -1,4 C 41 % 992,3 hPa - 0,0 km/h - -3,9 C -1,4 C 0,0 km/h
Max-Datum _ 19.04.12 19.04.12 17.04.12 20.04.12 16.04.12 - 20.04.12 19.04.12 22.04.12
_ Max-Zeit 14:30 04:00 00:15 18:00 12:00 - 13:20 14:30 06:30
Maximum _ 17,3 C 85 % 1015,2 hPa 2,9 l/m 18,8 km/h
N
- 8,7 C 17,2 C 48,3 km/h
N
Durchschnitt _ 8,9 C 69 % 1003,4 hPa #11,4 l/m 5,2 km/h N 3,2 C 7,8 C 13,8 km/h